createdAt,value
2019-01-06T00:02:14.389Z,24.67
2019-01-06T00:05:06.910Z,25.03
2019-01-06T00:08:00.582Z,24.53
2019-01-06T00:10:51.862Z,28.23
2019-01-06T00:13:45.324Z,21.93
2019-01-06T00:16:47.947Z,29.63
2019-01-06T00:19:45.437Z,21.93
2019-01-06T00:22:38.482Z,25.43
2019-01-06T00:25:38.900Z,25.57
2019-01-06T00:28:32.609Z,22.87
2019-01-06T00:31:17.456Z,23.53
2019-01-06T00:34:23.278Z,20.57
2019-01-06T00:37:22.800Z,19.90
2019-01-06T00:40:25.367Z,29.77
2019-01-06T00:43:16.152Z,31.30
2019-01-06T00:46:18.382Z,23.87
2019-01-06T00:49:11.726Z,27.47
2019-01-06T00:52:05.388Z,29.40
2019-01-06T00:55:13.361Z,22.53
2019-01-06T00:58:16.160Z,19.27
2019-01-06T01:01:07.146Z,21.50
2019-01-06T01:03:59.678Z,35.40
2019-01-06T01:06:58.596Z,34.80
2019-01-06T01:09:51.026Z,26.37
2019-01-06T01:12:58.822Z,15.57
2019-01-06T01:15:57.732Z,22.67
2019-01-06T01:18:48.642Z,16.07
2019-01-06T01:21:40.848Z,18.07
2019-01-06T01:24:32.776Z,15.23
2019-01-06T01:27:41.638Z,19.87
2019-01-06T01:30:33.766Z,21.07
2019-01-06T01:33:25.700Z,25.33
2019-01-06T01:36:23.228Z,18.97
2019-01-06T01:39:35.285Z,22.73
2019-01-06T01:42:33.956Z,22.13
2019-01-06T01:45:39.442Z,18.93
2019-01-06T01:48:19.618Z,18.80
2019-01-06T01:51:18.994Z,17.70
2019-01-06T01:54:33.756Z,17.83
2019-01-06T01:57:17.900Z,18.77
2019-01-06T02:00:15.039Z,16.83
2019-01-06T02:03:07.813Z,19.97
2019-01-06T02:06:01.383Z,23.40
2019-01-06T02:09:07.293Z,18.10
2019-01-06T02:12:00.103Z,25.73
2019-01-06T02:14:57.200Z,18.33
2019-01-06T02:17:48.560Z,22.07
2019-01-06T02:20:45.216Z,20.60
2019-01-06T02:23:44.591Z,29.00
2019-01-06T02:26:39.548Z,19.93
2019-01-06T02:29:29.684Z,20.63
2019-01-06T02:32:24.940Z,24.43
2019-01-06T02:35:32.335Z,21.23
2019-01-06T02:38:37.120Z,22.37
2019-01-06T02:41:29.866Z,24.97
2019-01-06T02:44:35.024Z,20.27
2019-01-06T02:47:27.174Z,25.73
2019-01-06T02:50:20.803Z,22.93
2019-01-06T02:53:29.356Z,96.70
2019-01-06T02:56:27.397Z,132.87
2019-01-06T02:59:30.792Z,75.67
2019-01-06T03:02:42.775Z,40.60
2019-01-06T03:05:43.155Z,20.60
2019-01-06T03:08:36.264Z,29.50
2019-01-06T03:11:41.419Z,21.90
2019-01-06T03:14:44.353Z,15.53
2019-01-06T03:17:40.719Z,13.63
2019-01-06T03:20:33.876Z,15.97
2019-01-06T03:23:35.746Z,18.30
2019-01-06T03:26:28.125Z,17.47
2019-01-06T03:29:19.487Z,16.57
2019-01-06T03:32:15.232Z,15.90
2019-01-06T03:35:26.314Z,13.10
2019-01-06T03:38:22.068Z,11.13
2019-01-06T03:41:23.367Z,12.67
2019-01-06T03:44:16.542Z,14.00
2019-01-06T03:47:20.080Z,15.13
2019-01-06T03:50:11.143Z,13.90
2019-01-06T03:53:18.719Z,16.50
2019-01-06T03:56:27.147Z,15.50
2019-01-06T03:59:23.893Z,16.73
2019-01-06T04:02:15.074Z,21.07
2019-01-06T04:05:16.632Z,18.37
2019-01-06T04:08:07.397Z,21.73
2019-01-06T04:11:15.096Z,25.77
2019-01-06T04:14:00.226Z,16.37
2019-01-06T04:16:52.959Z,19.83
2019-01-06T04:19:44.264Z,15.43
2019-01-06T04:22:45.628Z,14.53
2019-01-06T04:25:43.253Z,15.30
2019-01-06T04:28:34.764Z,12.87
2019-01-06T04:31:27.740Z,17.60
2019-01-06T04:34:20.406Z,20.13
2019-01-06T04:37:06.618Z,16.60
2019-01-06T04:40:05.158Z,17.07
2019-01-06T04:42:49.586Z,12.63
2019-01-06T04:45:42.607Z,18.33
2019-01-06T04:48:42.204Z,17.73
2019-01-06T04:51:32.916Z,17.23
2019-01-06T04:54:34.387Z,30.10
2019-01-06T04:57:26.792Z,11.70
2019-01-06T05:00:17.668Z,17.07
2019-01-06T05:03:25.444Z,15.50
2019-01-06T05:06:24.686Z,15.50
2019-01-06T05:09:15.510Z,22.63
2019-01-06T05:12:05.173Z,22.20
2019-01-06T05:15:03.756Z,17.60
2019-01-06T05:18:01.442Z,16.10
2019-01-06T05:20:57.434Z,17.60
2019-01-06T05:23:57.151Z,24.77
2019-01-06T05:26:55.710Z,20.63
2019-01-06T05:29:48.484Z,16.03
2019-01-06T05:32:56.498Z,13.07
2019-01-06T05:35:57.914Z,20.47
2019-01-06T05:38:48.866Z,20.30
2019-01-06T05:41:50.915Z,14.60
2019-01-06T05:44:43.533Z,15.10
2019-01-06T05:47:36.208Z,16.07
2019-01-06T05:50:34.671Z,12.30
2019-01-06T05:53:27.256Z,18.10
2019-01-06T05:56:23.562Z,14.17
2019-01-06T05:59:15.192Z,13.50
2019-01-06T06:02:05.236Z,15.80
2019-01-06T06:04:54.822Z,18.77
2019-01-06T06:07:54.069Z,14.53
2019-01-06T06:11:02.907Z,17.57
2019-01-06T06:13:54.616Z,20.87
2019-01-06T06:16:54.109Z,14.67
2019-01-06T06:20:02.216Z,17.37
2019-01-06T06:22:53.836Z,19.17
2019-01-06T06:25:52.549Z,18.77
2019-01-06T06:28:48.618Z,20.87
2019-01-06T06:31:47.484Z,26.33
2019-01-06T06:34:39.462Z,20.30
2019-01-06T06:37:24.070Z,31.17
2019-01-06T06:40:17.500Z,19.27
2019-01-06T06:43:22.200Z,19.40
2019-01-06T06:46:30.588Z,17.80
2019-01-06T06:49:28.566Z,17.77
2019-01-06T06:52:19.408Z,15.63
2019-01-06T06:55:16.125Z,24.33
2019-01-06T06:58:40.061Z,19.87
2019-01-06T07:01:41.990Z,20.03
2019-01-06T07:04:33.738Z,17.33
2019-01-06T07:07:30.398Z,19.80
2019-01-06T07:10:21.744Z,19.20
2019-01-06T07:13:20.577Z,21.87
2019-01-06T07:16:04.476Z,17.20
2019-01-06T07:18:55.121Z,18.67
2019-01-06T07:22:03.806Z,23.63
2019-01-06T07:24:55.454Z,20.10
2019-01-06T07:27:48.376Z,33.03
2019-01-06T07:30:36.806Z,25.13
2019-01-06T07:33:33.566Z,28.13
2019-01-06T07:36:26.245Z,22.63
2019-01-06T07:39:20.348Z,26.27
2019-01-06T07:42:16.857Z,26.67
2019-01-06T07:45:16.460Z,25.53
2019-01-06T07:48:23.130Z,26.67
2019-01-06T07:51:09.410Z,26.97
2019-01-06T07:54:03.768Z,23.23
2019-01-06T07:57:06.698Z,25.37
2019-01-06T08:00:15.674Z,29.30
2019-01-06T08:03:21.536Z,32.87
2019-01-06T08:06:23.139Z,26.77
2019-01-06T08:09:23.134Z,33.90
2019-01-06T08:12:21.887Z,45.70
2019-01-06T08:15:31.238Z,65.97
2019-01-06T08:18:43.170Z,37.73
2019-01-06T08:21:35.374Z,36.00
2019-01-06T08:24:32.464Z,31.47
2019-01-06T08:27:24.918Z,40.20
2019-01-06T08:30:24.217Z,38.90
2019-01-06T08:33:20.047Z,39.27
2019-01-06T08:36:31.428Z,42.57
2019-01-06T08:39:42.805Z,61.27
2019-01-06T08:42:33.556Z,34.27
2019-01-06T08:45:43.375Z,39.07
2019-01-06T08:48:43.344Z,32.53
2019-01-06T08:51:40.605Z,35.50
2019-01-06T08:54:40.126Z,33.90
2019-01-06T08:57:33.384Z,26.77
2019-01-06T09:00:24.094Z,33.47
2019-01-06T09:03:21.972Z,27.33
2019-01-06T09:06:21.075Z,36.57
2019-01-06T09:09:30.140Z,48.13
2019-01-06T09:12:43.064Z,33.07
2019-01-06T09:15:32.071Z,30.43
2019-01-06T09:18:37.227Z,28.83
2019-01-06T09:21:31.412Z,33.37
2019-01-06T09:24:15.432Z,33.00
2019-01-06T09:27:08.682Z,26.33
2019-01-06T09:30:05.615Z,24.63
2019-01-06T09:33:00.418Z,23.57
2019-01-06T09:35:53.601Z,25.13
2019-01-06T09:38:46.860Z,26.33
2019-01-06T09:41:39.421Z,31.30
2019-01-06T09:44:37.096Z,30.27
2019-01-06T09:47:29.264Z,21.33
2019-01-06T09:50:32.503Z,21.00
2019-01-06T09:53:37.029Z,24.27
2019-01-06T09:59:57.096Z,19.73
2019-01-06T10:02:50.582Z,30.87
2019-01-06T10:05:47.676Z,33.23
2019-01-06T10:08:44.282Z,36.00
2019-01-06T10:11:47.448Z,34.60
2019-01-06T10:14:38.670Z,32.73
2019-01-06T10:17:35.764Z,33.27
2019-01-06T10:20:29.085Z,36.70
2019-01-06T10:23:22.427Z,35.47
2019-01-06T10:26:26.008Z,34.33
2019-01-06T10:29:22.568Z,28.43
2019-01-06T10:32:13.652Z,41.27
2019-01-06T10:35:11.103Z,25.57
2019-01-06T10:38:22.148Z,22.33
2019-01-06T10:41:28.613Z,28.93
2019-01-06T10:44:19.940Z,24.93
2019-01-06T10:47:13.677Z,27.20
2019-01-06T10:50:04.958Z,23.07
2019-01-06T10:52:57.238Z,26.90
2019-01-06T10:55:54.327Z,25.40
2019-01-06T10:58:57.258Z,19.40
2019-01-06T11:02:03.573Z,21.03
2019-01-06T11:04:55.658Z,27.90
2019-01-06T11:08:02.808Z,34.47
2019-01-06T11:10:54.800Z,38.53
2019-01-06T11:13:44.792Z,35.43
2019-01-06T11:16:37.686Z,39.07
2019-01-06T11:19:33.430Z,39.67
2019-01-06T11:22:25.751Z,43.37
2019-01-06T11:25:23.096Z,40.30
2019-01-06T11:28:30.256Z,33.77
2019-01-06T11:31:37.740Z,41.80
2019-01-06T11:34:40.003Z,41.17
2019-01-06T11:37:36.881Z,40.30
2019-01-06T11:40:30.735Z,49.63
2019-01-06T11:43:22.501Z,45.30
2019-01-06T11:46:14.262Z,47.30
2019-01-06T11:49:10.442Z,39.77
2019-01-06T11:52:18.287Z,46.80
2019-01-06T11:55:11.464Z,51.70
2019-01-06T11:58:10.711Z,125.80
2019-01-06T12:01:05.456Z,54.43
2019-01-06T12:03:55.292Z,30.23
2019-01-06T12:06:54.407Z,30.03
2019-01-06T12:09:47.046Z,35.13
2019-01-06T12:12:37.844Z,34.93
2019-01-06T12:15:28.834Z,28.37
2019-01-06T12:18:31.013Z,45.27
2019-01-06T12:21:26.156Z,47.17
2019-01-06T12:24:20.480Z,32.47
2019-01-06T12:27:28.335Z,54.37
2019-01-06T12:30:24.574Z,28.83
2019-01-06T12:33:34.488Z,31.80
2019-01-06T12:36:25.744Z,33.40
2019-01-06T12:39:19.106Z,30.20
2019-01-06T12:42:11.329Z,30.10
2019-01-06T12:45:04.831Z,41.03
2019-01-06T12:47:56.195Z,37.17
2019-01-06T12:50:41.402Z,25.80
2019-01-06T12:53:39.137Z,27.23
2019-01-06T12:56:24.715Z,30.20
2019-01-06T12:59:36.157Z,61.57
2019-01-06T13:02:40.733Z,31.80
2019-01-06T13:05:34.119Z,37.70
2019-01-06T13:08:29.858Z,37.20
2019-01-06T13:11:36.288Z,38.67
2019-01-06T13:14:35.154Z,34.00
2019-01-06T13:17:26.183Z,44.83
2019-01-06T13:20:28.953Z,34.80
2019-01-06T13:23:38.136Z,43.60
2019-01-06T13:26:34.878Z,35.60
2019-01-06T13:29:32.219Z,30.03
2019-01-06T13:32:26.547Z,32.60
2019-01-06T13:35:18.990Z,27.53
2019-01-06T13:38:22.034Z,40.03
2019-01-06T13:41:13.305Z,31.87
2019-01-06T13:44:07.380Z,28.67
2019-01-06T13:47:03.340Z,28.27
2019-01-06T13:50:14.090Z,62.50
2019-01-06T13:53:09.194Z,28.60
2019-01-06T13:55:52.429Z,27.57
2019-01-06T13:58:49.953Z,24.20
2019-01-06T14:01:44.008Z,15.90
2019-01-06T14:04:36.476Z,16.43
2019-01-06T14:07:32.510Z,24.17
2019-01-06T14:10:23.798Z,19.67
2019-01-06T14:13:15.403Z,32.67
2019-01-06T14:16:20.404Z,23.33
2019-01-06T14:19:23.487Z,17.37
2019-01-06T14:22:22.601Z,15.23
2019-01-06T14:25:15.448Z,22.43
2019-01-06T14:28:06.538Z,31.57
2019-01-06T14:31:07.153Z,18.23
2019-01-06T14:34:19.574Z,18.10
2019-01-06T14:37:28.792Z,20.57
2019-01-06T14:40:18.274Z,19.70
2019-01-06T14:43:22.604Z,18.63
2019-01-06T14:46:22.133Z,19.00
2019-01-06T14:49:20.862Z,19.00
2019-01-06T14:52:32.347Z,21.40
2019-01-06T14:55:42.548Z,22.33
2019-01-06T14:58:33.220Z,21.17
2019-01-06T15:01:25.972Z,24.50
2019-01-06T15:04:35.621Z,23.87
2019-01-06T15:07:35.290Z,25.33
2019-01-06T15:10:28.970Z,32.17
2019-01-06T15:13:22.671Z,25.67
2019-01-06T15:16:23.764Z,26.27
2019-01-06T15:19:15.976Z,26.10
2019-01-06T15:22:14.840Z,52.47
2019-01-06T15:25:06.935Z,37.70
2019-01-06T15:27:56.824Z,27.13
2019-01-06T15:30:49.984Z,22.27
2019-01-06T15:33:36.815Z,24.27
2019-01-06T15:36:26.825Z,22.87
2019-01-06T15:39:16.966Z,27.77
2019-01-06T15:42:04.781Z,36.67
2019-01-06T15:44:48.827Z,26.67
2019-01-06T15:47:48.461Z,37.83
2019-01-06T15:50:46.383Z,30.57
2019-01-06T15:53:39.233Z,40.13
2019-01-06T15:56:22.649Z,29.00
2019-01-06T15:59:31.170Z,35.87
2019-01-06T16:02:40.239Z,30.23
2019-01-06T16:05:36.494Z,40.40
2019-01-06T16:08:33.666Z,38.43
2019-01-06T16:11:27.908Z,48.10
2019-01-06T16:14:32.981Z,44.80
2019-01-06T16:17:26.879Z,43.03
2019-01-06T16:20:13.079Z,40.50
2019-01-06T16:22:59.890Z,41.43
2019-01-06T16:26:02.363Z,36.47
2019-01-06T16:29:02.135Z,45.17
2019-01-06T16:32:03.629Z,57.10
2019-01-06T16:34:56.952Z,66.47
2019-01-06T16:37:59.192Z,72.20
2019-01-06T16:40:51.382Z,69.40
2019-01-06T16:43:42.490Z,79.30
2019-01-06T16:46:39.495Z,100.17
2019-01-06T16:49:32.282Z,87.60
2019-01-06T16:52:40.852Z,100.23
2019-01-06T16:55:39.265Z,90.17
2019-01-06T16:58:37.317Z,84.70
2019-01-06T17:01:28.276Z,106.53
2019-01-06T17:04:34.017Z,85.13
2019-01-06T17:07:33.321Z,112.50
2019-01-06T17:10:31.598Z,103.87
2019-01-06T17:13:25.357Z,115.10
2019-01-06T17:16:17.721Z,108.20
2019-01-06T17:19:13.687Z,98.50
2019-01-06T17:22:11.442Z,106.87
2019-01-06T17:25:02.774Z,96.60
2019-01-06T17:28:11.583Z,98.07
2019-01-06T17:31:10.484Z,91.77
2019-01-06T17:34:14.597Z,96.27
2019-01-06T17:37:07.790Z,84.50
2019-01-06T17:40:28.770Z,89.50
2019-01-06T17:43:27.650Z,75.93
2019-01-06T17:46:35.821Z,92.60
2019-01-06T17:49:28.466Z,90.10
2019-01-06T17:52:39.863Z,91.40
2019-01-06T17:55:52.005Z,87.53
2019-01-06T17:58:42.482Z,81.03
2019-01-06T18:04:16.843Z,100.80
2019-01-06T18:07:09.258Z,114.70
2019-01-06T18:10:02.991Z,120.63
2019-01-06T18:13:09.417Z,113.37
2019-01-06T18:16:04.341Z,92.13
2019-01-06T18:18:57.948Z,95.27
2019-01-06T18:21:59.319Z,95.80
2019-01-06T18:24:53.288Z,85.20
2019-01-06T18:27:46.697Z,97.23
2019-01-06T18:30:39.012Z,99.77
2019-01-06T18:33:31.945Z,94.40
2019-01-06T18:36:32.087Z,99.70
2019-01-06T18:39:27.282Z,94.43
2019-01-06T18:42:19.318Z,92.70
2019-01-06T18:45:15.091Z,86.00
2019-01-06T18:48:23.370Z,96.83
2019-01-06T18:51:18.941Z,101.47
2019-01-06T18:54:11.130Z,93.00
2019-01-06T18:57:12.011Z,81.17
2019-01-06T19:00:21.776Z,84.57
2019-01-06T19:03:35.871Z,73.27
2019-01-06T19:06:40.984Z,78.10
2019-01-06T19:09:40.088Z,98.17
2019-01-06T19:12:42.660Z,109.63
2019-01-06T19:15:36.571Z,99.47
2019-01-06T19:18:24.971Z,93.33
2019-01-06T19:21:26.926Z,87.63
2019-01-06T19:24:43.622Z,79.63
2019-01-06T19:27:39.588Z,76.70
2019-01-06T19:30:31.682Z,75.37
2019-01-06T19:33:24.402Z,72.83
2019-01-06T19:36:18.607Z,72.63
2019-01-06T19:39:11.981Z,89.33
2019-01-06T19:42:11.114Z,80.07
2019-01-06T19:45:10.226Z,83.47
2019-01-06T19:48:05.384Z,46.03
2019-01-06T19:50:59.264Z,64.43
2019-01-06T19:53:50.498Z,59.73
2019-01-06T19:56:45.060Z,56.40
2019-01-06T19:59:37.434Z,80.60
2019-01-06T20:02:30.508Z,76.50
2019-01-06T20:05:28.133Z,59.03
2019-01-06T20:08:24.844Z,62.40
2019-01-06T20:11:19.049Z,56.50
2019-01-06T20:14:18.578Z,54.20
2019-01-06T20:17:12.537Z,44.03
2019-01-06T20:20:06.142Z,55.40
2019-01-06T20:23:01.723Z,44.47
2019-01-06T20:26:17.962Z,44.43
2019-01-06T20:29:32.943Z,42.03
2019-01-06T20:32:39.262Z,57.07
2019-01-06T20:35:37.995Z,63.40
2019-01-06T20:38:31.001Z,66.47
2019-01-06T20:41:34.244Z,55.63
2019-01-06T20:44:28.509Z,49.47
2019-01-06T20:47:25.208Z,38.00
2019-01-06T20:50:18.044Z,28.00
2019-01-06T20:53:17.370Z,39.27
2019-01-06T20:56:20.347Z,34.60
2019-01-06T20:59:29.399Z,41.67
2019-01-06T21:02:48.404Z,35.33
2019-01-06T21:06:00.540Z,46.17
2019-01-06T21:08:54.690Z,46.00
2019-01-06T21:11:52.786Z,50.60
2019-01-06T21:14:45.626Z,64.87
2019-01-06T21:17:39.290Z,61.93
2019-01-06T21:20:32.668Z,53.73
2019-01-06T21:23:25.170Z,40.27
2019-01-06T21:26:31.992Z,39.90
2019-01-06T21:29:39.954Z,52.57
2019-01-06T21:32:37.371Z,54.43
2019-01-06T21:35:34.578Z,55.77
2019-01-06T21:38:27.732Z,52.17
2019-01-06T21:41:19.544Z,54.80
2019-01-06T21:44:15.292Z,45.87
2019-01-06T21:47:14.536Z,52.23
2019-01-06T21:50:00.002Z,51.80
2019-01-06T21:53:03.311Z,51.93
2019-01-06T21:55:57.508Z,54.67
2019-01-06T21:58:50.081Z,48.63
2019-01-06T22:01:44.062Z,57.80
2019-01-06T22:04:36.074Z,58.93
2019-01-06T22:07:31.913Z,58.93
2019-01-06T22:10:45.362Z,51.33
2019-01-06T22:13:43.714Z,69.17
2019-01-06T22:16:35.362Z,58.27
2019-01-06T22:19:30.938Z,60.80
2019-01-06T22:22:17.686Z,57.10
2019-01-06T22:25:22.316Z,86.33
2019-01-06T22:28:31.850Z,62.30
2019-01-06T22:31:27.699Z,53.77
2019-01-06T22:34:37.843Z,57.43
2019-01-06T22:37:30.458Z,61.23
2019-01-06T22:40:22.404Z,58.53
2019-01-06T22:43:21.866Z,57.70
2019-01-06T22:46:15.810Z,55.23
2019-01-06T22:49:08.962Z,67.23
2019-01-06T22:52:12.534Z,54.73
2019-01-06T22:55:09.275Z,63.63
2019-01-06T22:58:05.604Z,68.73
2019-01-06T23:01:08.377Z,64.47
2019-01-06T23:04:02.558Z,69.80
2019-01-06T23:07:03.220Z,61.70
2019-01-06T23:09:55.750Z,69.27
2019-01-06T23:12:59.715Z,66.90
2019-01-06T23:15:53.308Z,54.90
2019-01-06T23:18:59.880Z,61.47
2019-01-06T23:21:52.122Z,58.50
2019-01-06T23:24:45.186Z,64.03
2019-01-06T23:27:45.070Z,63.40
2019-01-06T23:30:51.504Z,56.10
2019-01-06T23:33:43.586Z,66.63
2019-01-06T23:36:33.224Z,56.27
2019-01-06T23:39:44.982Z,58.07
2019-01-06T23:42:44.521Z,52.63
2019-01-06T23:45:38.343Z,52.13
2019-01-06T23:48:36.562Z,48.73
2019-01-06T23:51:40.604Z,53.17
2019-01-06T23:54:53.358Z,47.03
2019-01-06T23:57:47.743Z,44.60
